Time;durP1;ratioP1;P1;durP2;ratioP2;P2;SDS_P1;SDS_P2;PMS_P1;PMS_P2;Temp;Humidity;BMP_temperature;BMP_pressure;BME280_temperature;BME280_humidity;BME280_pressure;Samples;Min_cycle;Max_cycle;Signal;HPM_P1;HPM_P2
2022/06/13 00:00:52;;;;;;;10.75;3.70;;;13.40;99.90;;;;;;5049986;28;20044;-65
2022/06/13 00:03:18;;;;;;;8.55;3.28;;;13.40;99.90;;;;;;5048532;28;20115;-65
2022/06/13 00:05:44;;;;;;;12.00;4.05;;;13.40;99.90;;;;;;5048318;28;20041;-64
2022/06/13 00:08:09;;;;;;;9.32;3.38;;;13.40;99.90;;;;;;5050293;28;20033;-66
2022/06/13 00:10:36;;;;;;;9.75;3.50;;;13.40;99.90;;;;;;5050022;28;20037;-65
2022/06/13 00:13:02;;;;;;;9.27;4.35;;;13.40;99.90;;;;;;5049262;28;20514;-66
2022/06/13 00:15:28;;;;;;;9.52;3.60;;;13.40;99.90;;;;;;5048736;28;20048;-64
2022/06/13 00:17:54;;;;;;;10.75;4.25;;;13.40;99.90;;;;;;5050374;28;20472;-64
2022/06/13 00:20:20;;;;;;;12.23;4.03;;;13.40;99.90;;;;;;5049146;28;20099;-65
2022/06/13 00:22:45;;;;;;;12.27;4.35;;;13.50;99.90;;;;;;5052744;28;20041;-65
2022/06/13 00:25:11;;;;;;;10.90;4.00;;;13.50;99.90;;;;;;5052584;28;20364;-65
2022/06/13 00:27:37;;;;;;;10.32;3.60;;;13.50;99.90;;;;;;5053705;28;20112;-64
2022/06/13 00:30:06;;;;;;;11.95;3.42;;;13.50;99.90;;;;;;5054034;28;20021;-66
2022/06/13 00:32:32;;;;;;;10.98;3.83;;;13.50;99.90;;;;;;5053918;28;20467;-64
2022/06/13 00:34:58;;;;;;;8.88;3.97;;;13.50;99.90;;;;;;5053918;28;20120;-66
2022/06/13 00:37:24;;;;;;;8.25;3.90;;;13.50;99.90;;;;;;5053458;28;20040;-65
2022/06/13 00:39:49;;;;;;;14.35;4.05;;;13.50;99.90;;;;;;5052243;28;20052;-66
2022/06/13 00:42:20;;;;;;;9.52;3.92;;;13.50;99.90;;;;;;5053478;28;20044;-64
2022/06/13 00:45:05;;;;;;;10.60;4.18;;;13.60;99.90;;;;;;5052110;28;20109;-65
2022/06/13 00:47:30;;;;;;;10.43;4.00;;;13.60;99.90;;;;;;5053349;28;20487;-64
2022/06/13 00:49:57;;;;;;;10.32;4.30;;;13.60;99.90;;;;;;5053577;28;20046;-64
2022/06/13 00:52:29;;;;;;;14.38;4.43;;;13.50;99.90;;;;;;5035594;28;20496;-65
2022/06/13 00:54:55;;;;;;;12.35;4.30;;;13.60;99.90;;;;;;5053674;28;20387;-65
2022/06/13 00:57:25;;;;;;;11.95;4.57;;;13.50;99.90;;;;;;5052146;28;20040;-65
2022/06/13 00:59:55;;;;;;;9.60;4.43;;;13.50;99.90;;;;;;5051823;28;20037;-65
2022/06/13 01:02:21;;;;;;;10.82;4.72;;;13.50;99.90;;;;;;5051895;28;20048;-64
2022/06/13 01:04:51;;;;;;;12.95;4.45;;;13.60;99.90;;;;;;5051534;28;20131;-65
2022/06/13 01:07:18;;;;;;;11.95;4.82;;;13.60;99.90;;;;;;5051776;28;20049;-65
2022/06/13 01:12:30;;;;;;;12.75;5.38;;;13.60;99.90;;;;;;5052996;28;20045;-65
2022/06/13 01:15:31;;;;;;;12.40;5.00;;;13.60;99.90;;;;;;5051999;28;20487;-65
2022/06/13 01:18:10;;;;;;;11.93;4.43;;;13.60;99.90;;;;;;5030593;28;20058;-65
2022/06/13 01:20:50;;;;;;;11.02;4.85;;;13.60;99.90;;;;;;5014030;28;20053;-65
2022/06/13 01:23:35;;;;;;;10.48;4.32;;;13.60;99.90;;;;;;5014242;28;20041;-63
2022/06/13 01:26:33;;;;;;;8.77;4.55;;;13.70;99.90;;;;;;5028105;28;20080;-64
2022/06/13 01:29:19;;;;;;;8.98;4.50;;;13.70;99.90;;;;;;5030105;28;20041;-65
2022/06/13 01:31:56;;;;;;;13.85;4.53;;;13.60;99.90;;;;;;5029650;28;20469;-64
2022/06/13 01:34:51;;;;;;;10.85;4.95;;;13.60;99.90;;;;;;5029943;28;20060;-65
2022/06/13 01:37:33;;;;;;;15.40;5.40;;;13.70;99.90;;;;;;5029953;28;20041;-65
2022/06/13 01:40:20;;;;;;;14.98;4.75;;;13.70;99.90;;;;;;5029770;28;20041;-64
2022/06/13 01:43:04;;;;;;;11.07;4.95;;;13.70;99.90;;;;;;5012885;28;20045;-65
2022/06/13 01:45:42;;;;;;;14.75;5.72;;;13.70;99.90;;;;;;5013080;28;20049;-63
2022/06/13 01:48:32;;;;;;;11.27;5.70;;;13.70;99.90;;;;;;5030015;28;20057;-64
2022/06/13 01:51:22;;;;;;;13.77;5.40;;;13.70;99.90;;;;;;5029625;28;20124;-63
2022/06/13 01:54:20;;;;;;;13.27;5.63;;;13.70;99.90;;;;;;5036235;28;20057;-64
2022/06/13 01:57:14;;;;;;;16.17;5.60;;;13.70;99.90;;;;;;5049307;28;20053;-65
2022/06/13 01:59:48;;;;;;;17.27;6.47;;;13.80;99.90;;;;;;5052224;28;20404;-64
2022/06/13 02:02:32;;;;;;;12.65;6.20;;;13.80;99.90;;;;;;5050739;28;20040;-64
2022/06/13 02:05:20;;;;;;;12.60;5.45;;;13.80;99.90;;;;;;5051654;28;20049;-65
2022/06/13 02:07:55;;;;;;;13.23;5.43;;;13.80;99.90;;;;;;5050235;28;20909;-65
2022/06/13 02:10:27;;;;;;;13.70;5.78;;;13.70;99.90;;;;;;5050862;28;20049;-65
2022/06/13 02:13:07;;;;;;;11.30;5.50;;;13.80;99.90;;;;;;5051758;28;20033;-65
2022/06/13 02:15:43;;;;;;;15.27;5.82;;;13.70;99.90;;;;;;5050461;28;20052;-66
2022/06/13 02:18:16;;;;;;;9.90;4.78;;;13.70;99.90;;;;;;5051937;28;20041;-64
2022/06/13 02:20:46;;;;;;;16.13;5.43;;;13.70;99.90;;;;;;5050831;28;20399;-65
2022/06/13 02:23:18;;;;;;;11.85;5.53;;;13.70;99.90;;;;;;5050802;28;20044;-65
2022/06/13 02:26:15;;;;;;;11.45;5.07;;;13.70;99.90;;;;;;5050658;28;20053;-65
2022/06/13 02:29:02;;;;;;;13.75;5.30;;;13.70;99.90;;;;;;5033757;28;20068;-65
2022/06/13 02:31:46;;;;;;;13.90;5.55;;;13.70;99.90;;;;;;5051649;28;20048;-64
2022/06/13 02:34:20;;;;;;;12.05;5.25;;;13.70;99.90;;;;;;5050305;28;20037;-65
2022/06/13 02:36:54;;;;;;;11.82;5.22;;;13.60;99.90;;;;;;5051485;28;20468;-64
2022/06/13 02:39:33;;;;;;;15.65;5.35;;;13.60;99.90;;;;;;5050090;28;20048;-64
2022/06/13 02:42:19;;;;;;;15.43;5.00;;;13.60;99.90;;;;;;5049817;28;20090;-65
2022/06/13 02:45:02;;;;;;;15.70;6.03;;;13.50;99.90;;;;;;5032699;28;20098;-64
2022/06/13 02:47:57;;;;;;;9.55;4.60;;;13.50;99.90;;;;;;5051417;28;20047;-64
2022/06/13 02:50:58;;;;;;;11.95;5.50;;;13.50;99.90;;;;;;5042717;28;20044;-66
2022/06/13 02:53:36;;;;;;;12.73;5.43;;;13.40;99.90;;;;;;5049690;28;20041;-65
2022/06/13 02:56:35;;;;;;;11.43;5.53;;;13.40;99.90;;;;;;5049881;28;20049;-65
2022/06/13 02:59:21;;;;;;;11.88;5.10;;;13.50;99.90;;;;;;5050984;28;20033;-64
2022/06/13 03:01:49;;;;;;;12.20;5.88;;;13.40;99.90;;;;;;5051011;28;20404;-64
2022/06/13 03:04:27;;;;;;;13.88;5.38;;;13.40;99.90;;;;;;5050875;28;20381;-65
2022/06/13 03:07:09;;;;;;;13.63;5.90;;;13.40;99.90;;;;;;5050799;28;20080;-65
2022/06/13 03:09:46;;;;;;;13.45;6.45;;;13.40;99.90;;;;;;5050884;28;20133;-65
2022/06/13 03:12:37;;;;;;;13.25;6.20;;;13.40;99.90;;;;;;5050760;28;20391;-64
2022/06/13 03:15:18;;;;;;;13.43;6.40;;;13.40;99.90;;;;;;5049460;28;20076;-65
2022/06/13 03:17:53;;;;;;;12.70;5.82;;;13.40;99.90;;;;;;5046374;28;20125;-64
2022/06/13 03:20:22;;;;;;;15.85;6.05;;;13.40;99.90;;;;;;5050239;28;20076;-66
2022/06/13 03:23:12;;;;;;;15.75;6.93;;;13.40;99.90;;;;;;5048807;28;20391;-66
2022/06/13 03:25:50;;;;;;;15.88;7.40;;;13.40;99.90;;;;;;5049162;28;20553;-65
2022/06/13 03:28:21;;;;;;;15.32;7.13;;;13.40;99.90;;;;;;5049201;28;20047;-65
2022/06/13 03:31:01;;;;;;;14.97;8.87;;;13.40;99.90;;;;;;5050406;28;20037;-65
2022/06/13 03:33:41;;;;;;;17.83;9.07;;;13.40;99.90;;;;;;5049002;28;20083;-65
2022/06/13 03:36:19;;;;;;;13.88;8.23;;;13.50;99.90;;;;;;5050007;28;20120;-65
2022/06/13 03:39:18;;;;;;;15.18;8.18;;;13.50;99.90;;;;;;5048876;28;20044;-64
2022/06/13 03:41:53;;;;;;;17.50;8.35;;;13.50;99.90;;;;;;5011719;28;20404;-63
2022/06/13 03:44:29;;;;;;;19.75;8.52;;;13.40;99.90;;;;;;5027836;28;20411;-66
2022/06/13 03:47:01;;;;;;;18.50;7.85;;;13.40;99.90;;;;;;5027185;28;20049;-66
2022/06/13 03:49:30;;;;;;;;;;;13.50;99.90;;;;;;5011747;28;20048;-64
2022/06/13 03:51:59;;;;;;;18.42;7.82;;;13.40;99.90;;;;;;5011553;28;19929;-64
2022/06/13 03:54:39;;;;;;;16.25;8.02;;;13.40;99.90;;;;;;4993934;28;20057;-65
2022/06/13 03:57:21;;;;;;;18.67;8.45;;;13.40;99.90;;;;;;5015125;28;20420;-64
2022/06/13 04:00:08;;;;;;;15.50;7.55;;;13.50;99.90;;;;;;5032275;28;20041;-64
2022/06/13 04:02:37;;;;;;;16.95;8.35;;;13.50;99.90;;;;;;5032038;28;20132;-64
2022/06/13 04:05:03;;;;;;;17.05;8.48;;;13.50;99.90;;;;;;5031768;28;20048;-65
2022/06/13 04:07:35;;;;;;;16.85;8.45;;;13.50;99.90;;;;;;5015339;28;20092;-64
2022/06/13 04:10:08;;;;;;;16.92;7.95;;;13.50;99.90;;;;;;5031907;28;20627;-65
2022/06/13 04:12:46;;;;;;;18.73;8.02;;;13.50;99.90;;;;;;5031591;28;20061;-64
2022/06/13 04:15:46;;;;;;;16.15;8.23;;;13.60;99.90;;;;;;5031826;28;20087;-64
2022/06/13 04:18:37;;;;;;;16.13;7.93;;;13.60;99.90;;;;;;5039480;28;20045;-66
2022/06/13 04:21:27;;;;;;;18.00;8.75;;;13.60;99.90;;;;;;5052980;28;20487;-64
2022/06/13 04:24:32;;;;;;;18.80;8.68;;;13.60;99.90;;;;;;5054112;28;20075;-65
2022/06/13 04:27:06;;;;;;;16.77;8.07;;;13.70;99.90;;;;;;5053618;28;20040;-65
2022/06/13 04:29:46;;;;;;;15.75;7.40;;;13.70;99.90;;;;;;5052261;28;20053;-64
2022/06/13 04:32:18;;;;;;;9.80;5.75;;;13.70;99.90;;;;;;5052767;28;20436;-64
2022/06/13 04:34:46;;;;;;;12.98;6.15;;;13.80;99.90;;;;;;5053817;28;20072;-65
2022/06/13 04:37:14;;;;;;;12.73;6.30;;;13.80;99.90;;;;;;5053627;28;20045;-65
2022/06/13 04:39:42;;;;;;;13.05;5.43;;;13.80;99.90;;;;;;5053702;28;20044;-64
2022/06/13 04:42:09;;;;;;;12.95;5.00;;;13.80;99.90;;;;;;5053488;28;20098;-65
2022/06/13 04:44:36;;;;;;;12.25;4.00;;;13.90;99.90;;;;;;5053350;28;20041;-65
2022/06/13 04:47:04;;;;;;;11.40;3.78;;;13.80;99.90;;;;;;5052020;28;20041;-66
2022/06/13 04:49:41;;;;;;;8.93;3.78;;;13.80;99.90;;;;;;5052013;28;20044;-64
2022/06/13 04:52:15;;;;;;;11.30;3.35;;;13.80;99.90;;;;;;5053428;28;20371;-64
2022/06/13 04:54:49;;;;;;;10.15;3.08;;;13.80;99.90;;;;;;5052179;28;20032;-65
2022/06/13 04:57:17;;;;;;;12.85;3.90;;;13.90;99.90;;;;;;5053312;28;20049;-65
2022/06/13 04:59:43;;;;;;;10.50;3.00;;;14.00;99.90;;;;;;5051860;28;20403;-65
2022/06/13 05:02:13;;;;;;;9.20;3.00;;;14.10;99.90;;;;;;5051880;28;20473;-65
2022/06/13 05:04:39;;;;;;;10.13;3.15;;;14.10;99.90;;;;;;5052923;28;20565;-65
2022/06/13 05:07:20;;;;;;;8.38;2.72;;;14.20;99.90;;;;;;5049855;28;20041;-65
2022/06/13 05:09:51;;;;;;;6.78;2.35;;;14.20;99.90;;;;;;5051698;28;20116;-64
2022/06/13 05:12:25;;;;;;;6.82;2.67;;;14.20;99.90;;;;;;5052684;28;20131;-65
2022/06/13 05:15:22;;;;;;;10.10;2.47;;;14.20;99.90;;;;;;5052418;28;20037;-63
2022/06/13 05:18:13;;;;;;;10.30;3.30;;;14.20;99.90;;;;;;5030063;28;20057;-64
2022/06/13 05:20:59;;;;;;;9.70;2.80;;;14.20;99.90;;;;;;5030105;28;20045;-65
2022/06/13 05:23:32;;;;;;;6.68;2.72;;;14.20;99.90;;;;;;5013839;28;20547;-64
2022/06/13 05:26:00;;;;;;;6.35;2.95;;;14.40;99.90;;;;;;5029977;28;20045;-64
2022/06/13 05:28:29;;;;;;;6.28;2.20;;;14.50;99.90;;;;;;5013488;28;20080;-65
2022/06/13 05:30:58;;;;;;;6.10;2.08;;;14.60;99.90;;;;;;5013791;28;20049;-64
2022/06/13 05:33:30;;;;;;;8.95;2.00;;;14.70;99.90;;;;;;5030173;28;20102;-65
2022/06/13 05:35:57;;;;;;;6.25;2.78;;;14.80;99.90;;;;;;5029795;28;20052;-63
2022/06/13 05:38:33;;;;;;;6.78;2.35;;;15.00;99.90;;;;;;5029469;28;20045;-65
2022/06/13 05:40:58;;;;;;;8.75;2.80;;;15.10;99.90;;;;;;5030025;28;20492;-65
2022/06/13 05:43:24;;;;;;;6.30;2.50;;;15.30;99.90;;;;;;5013953;28;20080;-65
2022/06/13 05:45:50;;;;;;;10.93;2.47;;;15.50;99.90;;;;;;5030016;28;20148;-64
2022/06/13 05:48:19;;;;;;;5.28;2.20;;;15.80;99.90;;;;;;5013500;28;20128;-64
2022/06/13 05:50:45;;;;;;;6.75;2.22;;;15.70;99.90;;;;;;5029925;28;20454;-65
2022/06/13 05:53:16;;;;;;;8.10;2.58;;;15.60;99.90;;;;;;5030134;28;20037;-63
2022/06/13 05:55:42;;;;;;;9.15;2.40;;;15.50;99.90;;;;;;5050499;28;20056;-65
2022/06/13 05:58:13;;;;;;;10.13;2.30;;;15.40;99.90;;;;;;5052221;28;20049;-64
2022/06/13 06:00:46;;;;;;;6.82;2.17;;;15.40;99.90;;;;;;5051996;28;20121;-66
2022/06/13 06:03:12;;;;;;;5.95;1.80;;;15.30;99.90;;;;;;5052187;28;20044;-65
2022/06/13 06:05:39;;;;;;;8.57;2.00;;;15.40;99.90;;;;;;5051907;28;20178;-64
2022/06/13 06:08:06;;;;;;;5.65;1.80;;;15.30;99.90;;;;;;5051914;28;20147;-65
2022/06/13 06:10:34;;;;;;;7.75;2.30;;;15.30;99.90;;;;;;5050831;28;20055;-65
2022/06/13 06:13:00;;;;;;;6.65;1.80;;;15.40;99.90;;;;;;5051778;28;20507;-65
2022/06/13 06:15:25;;;;;;;6.38;1.40;;;15.60;99.90;;;;;;5050620;28;20045;-65
2022/06/13 06:17:51;;;;;;;7.05;1.58;;;15.70;99.90;;;;;;5049913;28;20025;-65
2022/06/13 06:20:21;;;;;;;5.45;1.88;;;15.80;99.90;;;;;;5050303;28;20434;-64
2022/06/13 06:22:47;;;;;;;6.50;1.85;;;15.90;99.90;;;;;;5051643;28;20076;-64
2022/06/13 06:25:13;;;;;;;6.82;1.92;;;16.00;99.90;;;;;;5050379;28;20560;-65
2022/06/13 06:27:39;;;;;;;9.07;1.58;;;16.20;99.90;;;;;;5051524;28;20041;-64
2022/06/13 06:30:06;;;;;;;4.18;1.50;;;16.40;99.90;;;;;;5050267;28;20086;-64
2022/06/13 06:32:31;;;;;;;5.50;1.52;;;16.50;99.90;;;;;;5051510;28;20462;-65
2022/06/13 06:34:57;;;;;;;5.40;1.40;;;16.50;99.90;;;;;;5051429;28;20124;-64
2022/06/13 06:37:23;;;;;;;5.30;1.60;;;16.50;99.90;;;;;;5050184;28;20052;-64
2022/06/13 06:39:48;;;;;;;6.25;1.35;;;16.40;99.90;;;;;;5051407;28;20250;-65
2022/06/13 06:42:14;;;;;;;8.07;1.40;;;16.30;99.90;;;;;;5050055;28;20098;-65
2022/06/13 06:44:40;;;;;;;5.80;1.60;;;16.10;99.90;;;;;;5051220;28;20052;-64
2022/06/13 06:47:06;;;;;;;6.65;1.70;;;15.90;99.90;;;;;;5051217;28;20036;-64
2022/06/13 06:49:38;;;;;;;5.88;1.40;;;15.70;99.90;;;;;;5050182;28;20475;-64
2022/06/13 06:52:05;;;;;;;7.13;1.33;;;15.50;99.90;;;;;;5049838;28;20438;-64
2022/06/13 07:00:00;;;;;;;6.35;1.42;;;14.50;99.90;;;;;;5048160;28;20049;-63
2022/06/13 07:02:28;;;;;;;3.75;1.00;;;14.30;99.90;;;;;;5033258;28;20048;-64
2022/06/13 07:04:58;;;;;;;4.22;1.25;;;14.20;99.90;;;;;;5049035;28;20061;-64
2022/06/13 07:07:24;;;;;;;4.07;1.00;;;14.10;99.90;;;;;;5050886;28;20037;-64
2022/06/13 07:09:50;;;;;;;3.47;1.00;;;14.10;99.90;;;;;;5050571;28;20059;-65
2022/06/13 07:12:16;;;;;;;2.63;0.75;;;14.10;99.90;;;;;;5050540;28;20102;-64
2022/06/13 07:14:42;;;;;;;1.63;0.90;;;14.10;99.90;;;;;;5050626;28;20104;-65
2022/06/13 07:17:09;;;;;;;2.05;0.73;;;14.10;99.90;;;;;;5050231;28;20080;-65
2022/06/13 07:19:36;;;;;;;4.13;0.90;;;14.20;99.90;;;;;;5049247;28;20049;-65
2022/06/13 07:22:03;;;;;;;3.15;0.85;;;14.40;99.90;;;;;;5050084;28;20043;-65
2022/06/13 07:24:31;;;;;;;5.18;0.98;;;14.70;99.90;;;;;;5050728;28;20123;-65
2022/06/13 07:26:57;;;;;;;2.45;1.23;;;15.10;99.90;;;;;;5050311;28;20045;-65
2022/06/13 07:29:24;;;;;;;2.95;0.98;;;15.50;99.90;;;;;;5031823;28;20044;-64
2022/06/13 07:32:03;;;;;;;4.22;1.25;;;15.80;99.90;;;;;;5050448;28;20537;-63
2022/06/13 07:34:32;;;;;;;5.88;1.10;;;15.80;99.90;;;;;;5049437;28;20045;-65
2022/06/13 07:37:00;;;;;;;6.75;1.52;;;15.80;99.90;;;;;;5049374;28;20077;-64
2022/06/13 07:39:26;;;;;;;5.72;0.80;;;15.80;99.90;;;;;;5049158;28;20053;-65
2022/06/13 07:41:52;;;;;;;3.72;0.98;;;15.60;99.90;;;;;;5050601;28;20086;-64
2022/06/13 07:44:39;;;;;;;7.20;1.27;;;15.40;99.90;;;;;;5050371;28;20086;-64
2022/06/13 07:47:05;;;;;;;3.15;1.00;;;15.70;99.90;;;;;;5048731;28;20048;-65
2022/06/13 07:49:31;;;;;;;5.40;1.10;;;15.90;99.90;;;;;;5049339;28;20488;-65
2022/06/13 07:51:57;;;;;;;4.35;1.33;;;16.20;99.90;;;;;;5048942;28;20048;-66
2022/06/13 07:54:23;;;;;;;5.20;1.35;;;16.50;99.90;;;;;;5048949;28;20041;-65
2022/06/13 07:56:49;;;;;;;8.07;1.70;;;16.80;99.90;;;;;;5049294;28;20560;-64
2022/06/13 07:59:19;;;;;;;6.30;1.25;;;17.10;99.90;;;;;;5050177;28;20511;-65
2022/06/13 08:01:45;;;;;;;5.45;1.60;;;17.30;99.90;;;;;;5049022;28;20041;-66
2022/06/13 08:04:11;;;;;;;5.15;1.05;;;17.30;99.90;;;;;;5049994;28;20412;-64
2022/06/13 08:06:41;;;;;;;7.50;1.40;;;17.30;99.90;;;;;;5048873;28;20044;-65
2022/06/13 08:09:08;;;;;;;6.35;1.20;;;17.40;99.90;;;;;;5048881;28;20403;-65
2022/06/13 08:11:37;;;;;;;7.00;1.60;;;17.20;99.90;;;;;;5050312;28;20041;-64
2022/06/13 08:14:06;;;;;;;5.45;1.08;;;16.90;99.90;;;;;;5050190;28;20033;-65
2022/06/13 08:16:34;;;;;;;4.32;1.33;;;16.50;99.90;;;;;;5050231;28;20123;-64
2022/06/13 08:19:01;;;;;;;8.27;1.70;;;16.20;99.90;;;;;;5049268;28;20053;-64
2022/06/13 08:21:27;;;;;;;5.25;1.10;;;16.00;99.90;;;;;;5050075;28;20049;-65
2022/06/13 08:23:53;;;;;;;7.30;1.20;;;15.90;99.90;;;;;;5050046;28;20391;-65
2022/06/13 08:26:19;;;;;;;4.07;1.00;;;15.90;99.90;;;;;;5049875;28;20124;-64
2022/06/13 08:28:44;;;;;;;6.38;1.63;;;15.90;99.90;;;;;;5049974;28;20110;-64
2022/06/13 08:31:12;;;;;;;5.35;1.00;;;16.30;99.90;;;;;;5049847;28;20033;-65
2022/06/13 08:33:39;;;;;;;2.92;1.00;;;16.50;99.90;;;;;;5050057;28;20037;-65
2022/06/13 08:36:08;;;;;;;4.63;1.38;;;16.80;99.90;;;;;;5050238;28;20475;-66
2022/06/13 08:38:34;;;;;;;4.05;1.05;;;17.00;99.90;;;;;;5048661;28;20057;-65
2022/06/13 08:41:15;;;;;;;1.88;0.98;;;16.90;99.90;;;;;;5049921;28;20040;-65
2022/06/13 08:44:08;;;;;;;4.90;0.80;;;17.10;99.90;;;;;;5053507;28;20142;-65
2022/06/13 08:46:47;;;;;;;5.35;1.00;;;17.10;99.90;;;;;;5052174;28;20045;-64
2022/06/13 08:49:13;;;;;;;4.63;1.00;;;17.30;99.90;;;;;;5050700;28;20033;-65
2022/06/13 08:51:55;;;;;;;4.43;0.90;;;17.40;99.90;;;;;;5051139;28;20419;-65
2022/06/13 08:54:32;;;;;;;7.15;1.10;;;17.40;99.90;;;;;;5053039;28;20099;-64
2022/06/13 08:57:04;;;;;;;3.35;0.98;;;17.60;99.90;;;;;;5051597;28;20047;-65
2022/06/13 08:59:37;;;;;;;2.97;0.85;;;17.80;99.90;;;;;;5051701;28;20544;-66
2022/06/13 09:02:25;;;;;;;4.50;1.08;;;17.40;99.90;;;;;;5051849;28;20045;-65
2022/06/13 09:05:13;;;;;;;4.07;1.02;;;17.60;99.90;;;;;;5052671;28;20049;-66
2022/06/13 09:07:55;;;;;;;6.35;0.90;;;17.80;99.90;;;;;;5051999;28;20061;-65
2022/06/13 09:10:32;;;;;;;6.50;0.90;;;17.90;99.90;;;;;;5034624;28;20056;-65
2022/06/13 09:13:08;;;;;;;2.78;0.80;;;17.60;99.90;;;;;;5052738;28;20053;-65
2022/06/13 09:15:43;;;;;;;5.07;0.90;;;17.30;99.90;;;;;;5035059;28;20377;-65
2022/06/13 09:18:32;;;;;;;4.57;1.00;;;16.90;99.90;;;;;;5052435;28;20048;-65
2022/06/13 09:21:04;;;;;;;5.38;1.08;;;16.60;99.90;;;;;;5049336;28;20056;-64
2022/06/13 09:23:55;;;;;;;6.37;1.07;;;16.60;99.90;;;;;;5051260;28;20049;-65
2022/06/13 09:26:34;;;;;;;6.03;1.10;;;17.00;99.90;;;;;;5052642;28;20045;-65
2022/06/13 09:29:15;;;;;;;3.85;0.95;;;17.50;99.90;;;;;;5051472;28;20062;-66
2022/06/13 09:31:44;;;;;;;3.03;0.88;;;18.00;99.90;;;;;;5051548;28;20132;-65
2022/06/13 09:34:18;;;;;;;5.15;1.23;;;18.30;99.90;;;;;;5052887;28;20037;-66
2022/06/13 09:37:00;;;;;;;5.25;1.30;;;18.40;99.90;;;;;;5051203;28;20138;-65
2022/06/13 09:39:26;;;;;;;6.00;0.93;;;17.90;99.90;;;;;;5052459;28;20071;-64
2022/06/13 09:42:11;;;;;;;5.00;1.08;;;17.50;99.90;;;;;;5052625;28;20063;-65
2022/06/13 09:45:17;;;;;;;6.25;1.23;;;17.80;99.90;;;;;;5052550;28;20388;-64
2022/06/13 09:48:29;;;;;;;5.07;1.10;;;18.20;99.90;;;;;;5030019;28;20408;-65
2022/06/13 09:51:25;;;;;;;4.60;1.05;;;18.50;99.90;;;;;;5013507;28;20053;-67
2022/06/13 09:53:51;;;;;;;4.93;0.90;;;18.40;99.90;;;;;;5028850;28;20480;-65
2022/06/13 09:56:44;;;;;;;5.13;1.10;;;18.20;99.90;;;;;;5013402;28;20044;-64
2022/06/13 09:59:40;;;;;;;7.13;1.35;;;17.90;99.90;;;;;;5030242;28;20049;-64
2022/06/13 10:02:25;;;;;;;4.00;1.30;;;17.90;99.90;;;;;;5030056;28;20045;-65
2022/06/13 10:05:09;;;;;;;11.18;1.90;;;18.20;99.90;;;;;;5029532;28;20511;-65
2022/06/13 10:07:50;;;;;;;5.05;1.40;;;18.70;99.90;;;;;;5013198;28;20075;-65
2022/06/13 10:10:52;;;;;;;5.13;1.55;;;18.60;99.90;;;;;;5029856;28;20049;-65
2022/06/13 10:13:47;;;;;;;4.85;1.10;;;18.30;99.90;;;;;;5013188;28;20045;-65
2022/06/13 10:16:37;;;;;;;4.53;1.00;;;18.10;99.90;;;;;;5013178;28;20085;-65
2022/06/13 10:19:18;;;;;;;5.63;1.23;;;18.20;99.90;;;;;;5029432;28;20037;-66
2022/06/13 10:21:52;;;;;;;3.88;0.85;;;18.40;99.60;;;;;;5029388;28;20048;-65
2022/06/13 10:24:24;;;;;;;7.38;1.42;;;18.60;99.90;;;;;;5049647;28;20045;-65
2022/06/13 10:27:11;;;;;;;4.75;0.95;;;18.90;99.90;;;;;;5050090;28;20087;-64
2022/06/13 10:30:11;;;;;;;4.68;0.98;;;18.70;99.90;;;;;;5050455;28;20545;-64
2022/06/13 10:33:02;;;;;;;5.78;0.90;;;18.30;99.90;;;;;;5050464;28;20059;-65
2022/06/13 10:35:48;;;;;;;3.75;1.20;;;17.80;99.90;;;;;;5051697;28;20033;-65
2022/06/13 10:38:20;;;;;;;6.10;1.20;;;18.00;99.90;;;;;;5050461;28;20056;-65
2022/06/13 10:40:46;;;;;;;6.43;1.00;;;18.50;99.90;;;;;;5047711;28;20050;-64
2022/06/13 10:43:12;;;;;;;4.53;1.20;;;18.70;99.50;;;;;;5051070;28;20275;-65
2022/06/13 10:45:40;;;;;;;9.02;1.17;;;18.60;99.70;;;;;;5050937;28;20037;-66
2022/06/13 10:48:17;;;;;;;6.85;1.27;;;18.80;99.90;;;;;;5050733;28;20041;-65
2022/06/13 10:50:51;;;;;;;5.18;1.40;;;18.90;99.90;;;;;;5050035;28;20392;-65
2022/06/13 10:53:27;;;;;;;4.35;1.02;;;19.00;98.70;;;;;;5049945;28;20045;-65
2022/06/13 10:55:57;;;;;;;4.72;1.10;;;19.10;99.20;;;;;;5049455;28;20040;-64
2022/06/13 10:58:37;;;;;;;4.68;1.20;;;19.30;99.50;;;;;;5049631;28;20503;-65
2022/06/13 11:01:17;;;;;;;7.07;1.20;;;18.50;97.90;;;;;;5048860;28;20045;-64
2022/06/13 11:03:58;;;;;;;3.22;1.10;;;18.20;98.50;;;;;;5050616;28;20389;-64
2022/06/13 11:06:58;;;;;;;7.00;1.15;;;18.20;98.50;;;;;;5049050;28;20508;-65
2022/06/13 11:09:46;;;;;;;8.65;1.45;;;18.40;99.90;;;;;;5028410;28;20128;-65
2022/06/13 11:12:29;;;;;;;5.97;1.08;;;18.90;99.90;;;;;;5027984;28;20038;-64
2022/06/13 11:23:52;;;;;;;6.63;1.30;;;17.90;99.80;;;;;;4992268;28;20104;-64
2022/06/13 11:27:39;;;;;;;5.25;1.02;;;17.70;99.90;;;;;;5008614;28;20051;-64
2022/06/13 11:29:16;;;;;;;5.30;1.30;;;17.60;99.90;;;;;;5008546;28;20081;-65
2022/06/13 11:31:56;;;;;;;9.20;1.92;;;17.40;99.90;;;;;;4991869;28;20052;-66
2022/06/13 11:34:28;;;;;;;8.10;1.40;;;17.60;99.90;;;;;;4988922;28;20034;-64
2022/06/13 11:37:04;;;;;;;6.30;1.10;;;17.60;99.90;;;;;;4988943;28;20062;-65
2022/06/13 11:39:32;;;;;;;5.13;1.00;;;17.40;99.90;;;;;;4989012;28;20082;-65
2022/06/13 11:41:58;;;;;;;4.03;1.02;;;17.20;99.90;;;;;;4972771;28;20140;-64
2022/06/13 11:44:25;;;;;;;8.23;1.50;;;17.10;99.90;;;;;;4972561;28;20050;-65
2022/06/13 11:46:59;;;;;;;6.82;1.10;;;17.00;99.90;;;;;;5006431;28;20488;-65
2022/06/13 11:49:36;;;;;;;6.55;1.52;;;17.10;99.90;;;;;;5039193;28;20442;-65
2022/06/13 11:52:01;;;;;;;6.40;1.40;;;17.20;99.90;;;;;;5050469;28;21387;-65
2022/06/13 11:54:48;;;;;;;6.32;1.00;;;17.20;99.90;;;;;;5049084;28;20428;-65
2022/06/13 11:57:18;;;;;;;4.68;1.10;;;17.20;99.90;;;;;;5050223;28;20037;-65
2022/06/13 12:00:06;;;;;;;7.55;1.30;;;17.20;99.90;;;;;;5050695;28;20483;-65
2022/06/13 12:02:55;;;;;;;8.95;1.38;;;17.10;99.90;;;;;;5050307;28;20037;-64
2022/06/13 12:05:37;;;;;;;7.00;1.30;;;17.20;99.90;;;;;;5048755;28;20139;-65
2022/06/13 12:08:15;;;;;;;6.00;1.20;;;17.10;99.90;;;;;;5048978;28;20127;-65
2022/06/13 12:10:52;;;;;;;9.73;1.65;;;17.00;99.90;;;;;;5050396;28;20037;-67
2022/06/13 12:13:20;;;;;;;5.00;1.48;;;17.00;99.90;;;;;;5050264;28;20370;-65
2022/06/13 12:16:21;;;;;;;7.20;1.60;;;17.10;99.90;;;;;;5032417;28;20131;-64
2022/06/13 12:19:13;;;;;;;6.63;1.10;;;17.20;99.90;;;;;;5054283;28;20056;-64
2022/06/13 12:21:47;;;;;;;6.07;1.33;;;17.10;99.90;;;;;;5052909;28;20049;-65
2022/06/13 12:24:24;;;;;;;6.40;1.27;;;17.10;99.90;;;;;;5052382;28;20044;-65
2022/06/13 12:27:10;;;;;;;6.60;1.20;;;17.30;99.90;;;;;;5052751;28;20115;-65
2022/06/13 12:29:43;;;;;;;7.93;1.27;;;17.50;99.90;;;;;;5053681;28;20041;-65
2022/06/13 12:32:29;;;;;;;9.05;1.33;;;17.60;99.90;;;;;;5049612;28;20124;-66
2022/06/13 12:35:23;;;;;;;7.63;1.70;;;17.60;99.90;;;;;;5053402;28;20108;-64
2022/06/13 12:38:12;;;;;;;8.13;1.40;;;17.60;99.90;;;;;;5031221;28;20041;-65
2022/06/13 12:40:56;;;;;;;7.47;1.30;;;17.40;99.90;;;;;;5031441;28;20073;-65
2022/06/13 12:44:02;;;;;;;5.45;1.45;;;17.40;99.90;;;;;;5030980;28;20084;-64
2022/06/13 12:46:35;;;;;;;6.47;1.30;;;17.60;99.90;;;;;;5031036;28;20052;-66
2022/06/13 12:49:29;;;;;;;7.97;1.40;;;17.90;99.90;;;;;;5030587;28;20053;-65
2022/06/13 12:52:07;;;;;;;5.35;1.33;;;18.10;99.90;;;;;;5014838;28;20568;-65
2022/06/13 12:54:50;;;;;;;7.50;1.40;;;18.30;99.90;;;;;;5013312;28;20054;-64
2022/06/13 12:57:21;;;;;;;4.78;1.10;;;18.50;99.90;;;;;;5014594;28;20045;-65
2022/06/13 13:00:14;;;;;;;7.10;1.23;;;18.40;99.90;;;;;;5014412;28;20033;-65
2022/06/13 13:02:51;;;;;;;7.35;1.40;;;18.20;99.90;;;;;;5013798;28;20474;-65
2022/06/13 13:05:48;;;;;;;6.47;1.20;;;18.00;99.90;;;;;;5030867;28;20080;-65
2022/06/13 13:08:44;;;;;;;4.38;0.80;;;17.90;99.90;;;;;;5012951;28;20058;-65
2022/06/13 13:11:32;;;;;;;5.63;0.90;;;18.10;99.90;;;;;;5031057;28;20048;-65
2022/06/13 13:14:27;;;;;;;6.57;1.35;;;18.20;99.90;;;;;;5014291;28;20096;-65
2022/06/13 13:17:02;;;;;;;5.55;1.38;;;18.40;99.50;;;;;;5052812;28;20041;-64
2022/06/13 13:19:52;;;;;;;4.28;0.85;;;18.40;99.70;;;;;;5051739;28;20040;-65
2022/06/13 13:22:38;;;;;;;4.93;1.00;;;18.50;99.90;;;;;;5051839;28;20045;-64
2022/06/13 13:25:25;;;;;;;3.17;0.90;;;18.50;99.60;;;;;;5051508;28;20041;-65
2022/06/13 13:28:06;;;;;;;5.65;1.05;;;18.40;99.10;;;;;;5051357;28;20045;-64
2022/06/13 13:31:03;;;;;;;4.32;1.00;;;18.40;99.90;;;;;;5052852;28;20407;-65
2022/06/13 13:33:40;;;;;;;7.10;1.08;;;18.30;99.90;;;;;;5049269;28;20061;-65
2022/06/13 13:36:29;;;;;;;4.28;1.17;;;18.00;99.40;;;;;;5052875;28;20491;-65
2022/06/13 13:39:04;;;;;;;5.47;1.10;;;18.20;99.90;;;;;;5052518;28;20094;-64
2022/06/13 13:41:38;;;;;;;5.00;1.13;;;18.40;99.70;;;;;;5052688;28;20028;-66
2022/06/13 13:44:28;;;;;;;5.43;1.10;;;18.70;99.90;;;;;;5051266;28;20045;-64
2022/06/13 13:47:35;;;;;;;4.32;1.10;;;18.60;99.50;;;;;;5051024;28;20087;-64